Saint-Marc, Haiti
Current Conditions -  °F | °C
As of 12:00 PM on Thursday 23 Oct 2014 (Local Time) from MDST Reporting Station
Scattered Clouds Scattered Clouds  
Wind Chill: 90°   Ceiling: Unl
Heat Index: 96°   Visibility: 6mi
Dew Point: 72°   Wind: 9mph
Humidity: 55%   Direction: 130°SE
Pressure: 29.88"   Gusts: NA
Location:  19.11°N, 72.7°W
Report Text: MDST 231700Z 13008KT 9999 FEW029 SCT300 32/22 Q1012 NOSIG
Loading
Personal Weather Stations






























Interactive Weather Map
Tropical Storm Tracking
New forecast layout! Learn more

10-Day Weather Forecast

Advertisements
Track Severe Weather on mobile